Time;durP1;ratioP1;P1;durP2;ratioP2;P2;SDS_P1;SDS_P2;PMS_P1;PMS_P2;Temp;Humidity;BMP_temperature;BMP_pressure;BME280_temperature;BME280_humidity;BME280_pressure;Samples;Min_cycle;Max_cycle;Signal;HPM_P1;HPM_P2
2021/07/29 00:01:14;;;;;;;15.35;4.07;;;;;;;24.94;45.93;99507.31;6231077;28;20061;-74
2021/07/29 00:04:15;;;;;;;12.15;4.25;;;;;;;24.87;46.16;99506.47;6248483;28;20496;-75
2021/07/29 00:07:15;;;;;;;10.67;4.13;;;;;;;24.75;46.77;99508.91;6248434;28;20038;-75
2021/07/29 00:10:16;;;;;;;11.10;4.13;;;;;;;24.72;46.88;99511.94;6230776;28;20054;-75
2021/07/29 00:13:17;;;;;;;18.83;4.53;;;;;;;24.66;47.23;99518.88;6214801;28;20482;-74
2021/07/29 00:16:18;;;;;;;10.87;3.77;;;;;;;24.66;47.42;99523.41;6214532;28;20120;-74
2021/07/29 00:19:18;;;;;;;11.35;4.13;;;;;;;24.56;47.97;99521.09;6246986;28;20041;-74
2021/07/29 00:22:19;;;;;;;12.53;4.07;;;;;;;24.53;48.12;99519.66;6246484;28;20128;-74
2021/07/29 00:25:21;;;;;;;15.13;4.45;;;;;;;24.56;48.30;99514.94;6247792;28;20037;-74
2021/07/29 00:28:22;;;;;;;10.25;4.18;;;;;;;24.48;48.34;99516.75;6230060;28;20140;-74
2021/07/29 00:31:35;;;;;;;14.48;4.55;;;;;;;24.47;48.43;99522.25;6246255;28;20076;-74
2021/07/29 00:34:36;;;;;;;12.60;4.25;;;;;;;24.38;48.89;99512.75;6246175;28;20041;-74
2021/07/29 00:37:37;;;;;;;13.77;3.87;;;;;;;24.28;49.02;99519.28;6246127;28;20068;-74
2021/07/29 00:40:37;;;;;;;14.20;4.27;;;;;;;24.31;49.14;99512.72;6245907;28;20052;-74
2021/07/29 00:43:38;;;;;;;12.77;4.57;;;;;;;24.22;49.57;99517.41;6246108;28;20045;-74
2021/07/29 00:46:39;;;;;;;15.73;4.73;;;;;;;24.22;49.82;99521.91;6229706;28;20049;-74
2021/07/29 00:49:40;;;;;;;20.45;4.53;;;;;;;24.11;49.94;99525.91;6246943;28;20037;-74
2021/07/29 00:52:41;;;;;;;11.87;4.63;;;;;;;24.04;50.47;99525.06;6245817;28;20053;-74
2021/07/29 00:55:42;;;;;;;17.03;4.73;;;;;;;24.04;50.44;99517.88;6247154;28;20125;-74
2021/07/29 00:58:43;;;;;;;12.95;4.40;;;;;;;24.01;50.58;99525.44;6245581;28;20403;-74
2021/07/29 01:01:44;;;;;;;17.33;4.70;;;;;;;23.93;50.90;99524.56;6246118;28;20084;-74
2021/07/29 01:04:47;;;;;;;21.57;4.70;;;;;;;23.94;50.87;99518.22;6247904;28;20052;-74
2021/07/29 01:07:49;;;;;;;9.48;4.18;;;;;;;23.85;51.44;99524.72;6229111;28;20057;-74
2021/07/29 01:10:49;;;;;;;10.95;4.38;;;;;;;23.83;51.35;99520.59;6245392;28;20331;-74
2021/07/29 01:13:50;;;;;;;14.27;4.17;;;;;;;23.83;51.41;99536.59;6228983;28;20037;-74
2021/07/29 01:16:51;;;;;;;13.63;4.63;;;;;;;23.87;51.41;99541.31;6228825;28;20419;-74
2021/07/29 01:19:52;;;;;;;18.17;4.43;;;;;;;23.84;51.36;99543.53;6228740;28;20068;-74
2021/07/29 01:22:52;;;;;;;21.00;4.43;;;;;;;23.93;51.04;99539.75;6245236;28;20081;-74
2021/07/29 01:25:53;;;;;;;11.00;4.33;;;;;;;23.95;51.13;99535.03;6229066;28;20100;-74
2021/07/29 01:28:58;;;;;;;11.30;4.87;;;;;;;23.89;51.41;99539.28;6245224;28;20619;-74
2021/07/29 01:31:58;;;;;;;15.23;4.75;;;;;;;23.93;51.32;99539.75;6245076;28;20042;-74
2021/07/29 01:34:59;;;;;;;18.33;5.00;;;;;;;23.98;51.32;99547.16;6228920;28;20076;-74
2021/07/29 01:38:00;;;;;;;12.97;4.93;;;;;;;24.04;50.95;99549.03;6246420;28;20056;-74
2021/07/29 01:41:04;;;;;;;11.47;4.60;;;;;;;23.98;51.15;99542.63;6228633;28;20042;-74
2021/07/29 01:44:05;;;;;;;17.73;4.93;;;;;;;23.98;51.23;99539.16;6229127;28;20049;-74
2021/07/29 01:47:06;;;;;;;12.57;4.82;;;;;;;23.98;51.13;99534.66;6212366;28;20396;-74
2021/07/29 01:50:07;;;;;;;17.80;4.60;;;;;;;23.99;51.35;99525.66;6212137;28;20474;-74
2021/07/29 01:53:08;;;;;;;13.05;4.65;;;;;;;23.98;51.36;99521.31;6228535;28;20590;-74
2021/07/29 01:56:09;;;;;;;20.00;4.50;;;;;;;23.98;51.59;99512.50;6246096;28;20045;-74
2021/07/29 01:59:09;;;;;;;15.43;4.65;;;;;;;23.97;51.74;99509.03;6228312;28;20045;-74
2021/07/29 02:02:10;;;;;;;11.83;4.47;;;;;;;23.93;52.05;99507.78;6228254;28;20432;-75
2021/07/29 02:05:11;;;;;;;19.87;4.43;;;;;;;23.91;52.33;99520.47;6244814;28;20489;-74
2021/07/29 02:08:11;;;;;;;14.00;4.93;;;;;;;23.82;52.50;99517.09;6245120;28;20037;-74
2021/07/29 02:11:12;;;;;;;12.73;4.50;;;;;;;23.79;53.69;99514.00;6249547;28;20073;-74
2021/07/29 02:14:13;;;;;;;13.07;4.30;;;;;;;23.76;53.35;99511.69;6249731;28;20370;-74
2021/07/29 02:17:19;;;;;;;20.77;4.90;;;;;;;23.73;53.17;99505.72;6217546;28;20041;-74
2021/07/29 02:20:20;;;;;;;11.13;4.53;;;;;;;23.70;53.39;99505.28;6233062;28;20493;-74
2021/07/29 02:23:21;;;;;;;11.43;4.50;;;;;;;23.61;53.83;99498.47;6233258;28;20048;-74
2021/07/29 02:26:21;;;;;;;23.13;4.57;;;;;;;23.60;54.00;99507.47;6233126;28;20048;-74
2021/07/29 02:29:22;;;;;;;12.20;4.17;;;;;;;23.50;54.45;99511.28;6250639;28;20041;-74
2021/07/29 02:32:23;;;;;;;12.93;4.47;;;;;;;23.43;54.75;99517.53;6250371;28;20454;-74
2021/07/29 02:35:24;;;;;;;18.95;4.70;;;;;;;23.39;54.90;99505.63;6249379;28;20065;-74
2021/07/29 02:38:25;;;;;;;16.87;5.17;;;;;;;23.27;55.37;99510.66;6250466;28;20071;-74
2021/07/29 02:41:25;;;;;;;12.03;4.70;;;;;;;23.24;55.25;99516.34;6250259;28;20483;-74
2021/07/29 02:44:26;;;;;;;13.27;4.67;;;;;;;23.08;56.27;99533.34;6232724;28;20077;-75
2021/07/29 02:47:27;;;;;;;11.20;4.40;;;;;;;23.06;56.56;99533.56;6233119;28;20073;-75
2021/07/29 02:50:27;;;;;;;13.23;4.37;;;;;;;22.91;57.34;99530.06;6249527;28;20116;-74
2021/07/29 02:53:32;;;;;;;11.90;4.43;;;;;;;22.78;57.92;99532.56;6248813;28;20046;-74
2021/07/29 02:56:33;;;;;;;17.65;4.97;;;;;;;22.65;58.74;99531.38;6249927;28;20492;-74
2021/07/29 02:59:33;;;;;;;12.27;4.57;;;;;;;22.68;58.88;99536.31;6248465;28;20118;-74
2021/07/29 03:02:34;;;;;;;15.07;4.47;;;;;;;22.49;59.88;99532.38;6247065;28;20100;-74
2021/07/29 03:05:35;;;;;;;17.60;4.90;;;;;;;22.53;59.99;99532.84;6247257;28;20503;-74
2021/07/29 03:08:36;;;;;;;15.53;5.00;;;;;;;22.51;60.44;99533.03;6248187;28;20045;-74
2021/07/29 03:11:37;;;;;;;12.48;4.57;;;;;;;22.45;60.71;99536.44;6247670;28;20037;-74
2021/07/29 03:14:38;;;;;;;18.43;4.37;;;;;;;22.52;60.76;99541.81;6232035;28;20072;-74
2021/07/29 03:17:38;;;;;;;13.97;4.90;;;;;;;22.37;61.33;99543.66;6247985;28;20045;-74
2021/07/29 03:20:40;;;;;;;19.93;4.57;;;;;;;22.38;61.36;99547.97;6229920;28;20117;-74
2021/07/29 03:23:41;;;;;;;16.73;4.80;;;;;;;22.35;61.84;99551.00;6214092;28;20395;-74
2021/07/29 03:26:42;;;;;;;17.37;4.93;;;;;;;22.18;62.75;99553.78;6230429;28;20045;-74
2021/07/29 03:29:42;;;;;;;10.27;4.80;;;;;;;22.03;63.94;99560.88;6247788;28;20037;-74
2021/07/29 03:32:43;;;;;;;16.87;5.10;;;;;;;22.02;64.31;99556.59;6229822;28;20152;-74
2021/07/29 03:35:44;;;;;;;16.07;5.00;;;;;;;22.08;64.72;99553.22;6230074;28;20502;-74
2021/07/29 03:38:44;;;;;;;16.63;4.63;;;;;;;22.17;64.89;99564.59;6230142;28;20046;-74
2021/07/29 03:41:45;;;;;;;14.83;4.67;;;;;;;22.18;65.21;99577.69;6229892;28;20057;-74
2021/07/29 03:44:46;;;;;;;13.97;4.47;;;;;;;22.17;65.92;99576.03;6246352;28;20163;-75
2021/07/29 03:47:46;;;;;;;10.27;4.30;;;;;;;22.22;66.41;99575.50;6213512;28;20049;-74
2021/07/29 03:50:47;;;;;;;16.07;5.20;;;;;;;22.13;67.66;99578.25;6229658;28;20045;-74
2021/07/29 03:53:48;;;;;;;18.43;5.43;;;;;;;22.14;68.27;99576.41;6247434;28;20044;-74
2021/07/29 03:56:48;;;;;;;20.23;4.67;;;;;;;22.17;69.17;99577.88;6246058;28;20531;-74
2021/07/29 03:59:50;;;;;;;14.27;4.53;;;;;;;22.09;70.59;99581.41;6205314;28;1210111;-74
2021/07/29 04:02:50;;;;;;;9.07;4.47;;;;;;;22.19;70.82;99589.97;6248308;28;20068;-74
2021/07/29 04:05:51;;;;;;;27.17;4.67;;;;;;;22.05;72.42;99585.44;6247234;28;20476;-74
2021/07/29 04:08:53;;;;;;;11.20;4.63;;;;;;;22.05;73.74;99593.41;6247129;28;20103;-74
2021/07/29 04:11:53;;;;;;;13.55;4.53;;;;;;;22.11;73.96;99595.34;6248061;28;20046;-74
2021/07/29 04:14:54;;;;;;;14.73;5.47;;;;;;;22.10;74.81;99605.16;6248224;28;20473;-74
2021/07/29 04:17:55;;;;;;;12.80;4.77;;;;;;;22.02;76.58;99596.44;6246907;28;20038;-74
2021/07/29 04:20:55;;;;;;;13.67;4.60;;;;;;;22.07;77.16;99597.56;6246789;28;20103;-74
2021/07/29 04:23:56;;;;;;;10.17;4.17;;;;;;;22.06;78.15;99605.69;6247152;28;20042;-74
2021/07/29 04:26:59;;;;;;;13.13;4.67;;;;;;;22.06;79.14;99609.19;6248013;28;20099;-74
2021/07/29 04:29:59;;;;;;;12.80;3.95;;;;;;;22.15;79.95;99620.56;6246676;28;20458;-74
2021/07/29 04:33:00;;;;;;;12.57;4.33;;;;;;;22.21;80.03;99617.19;6246878;28;20037;-74
2021/07/29 04:36:05;;;;;;;10.47;4.20;;;;;;;22.23;80.09;99636.47;6246551;28;20064;-75
2021/07/29 04:39:07;;;;;;;9.95;4.15;;;;;;;22.26;80.38;99638.78;6248527;28;20076;-74
2021/07/29 04:42:08;;;;;;;;;;;;;;;22.09;81.37;99631.91;6246965;28;20381;-74
2021/07/29 04:45:09;;;;;;;17.92;4.55;;;;;;;22.08;81.78;99627.59;6247693;28;19921;-74
2021/07/29 04:48:10;;;;;;;13.20;4.28;;;;;;;22.14;82.86;99619.72;6229995;28;20038;-74
2021/07/29 04:51:11;;;;;;;11.03;4.17;;;;;;;22.06;82.97;99613.66;6229620;28;20148;-74
2021/07/29 04:54:12;;;;;;;8.70;4.53;;;;;;;22.05;83.10;99591.59;6247277;28;20124;-74
2021/07/29 04:57:12;;;;;;;14.13;4.33;;;;;;;22.13;83.05;99596.00;6245919;28;20037;-75
2021/07/29 05:00:13;;;;;;;13.90;4.37;;;;;;;22.24;82.20;99592.94;6247274;28;20554;-74
2021/07/29 05:03:14;;;;;;;19.38;4.63;;;;;;;22.30;82.43;99597.53;6245895;28;20045;-74
2021/07/29 05:06:15;;;;;;;8.30;3.70;;;;;;;22.44;82.30;99595.06;6245734;28;20076;-74
2021/07/29 05:09:16;;;;;;;11.15;3.95;;;;;;;22.62;83.34;99597.38;6245650;28;20633;-74
2021/07/29 05:12:17;;;;;;;7.70;4.00;;;;;;;22.69;81.57;99611.59;6245372;28;20041;-74
2021/07/29 05:15:17;;;;;;;20.47;4.00;;;;;;;22.66;81.28;99611.97;6245540;28;20049;-75
2021/07/29 05:18:18;;;;;;;12.53;4.23;;;;;;;22.67;82.15;99630.41;6245182;28;20128;-74
2021/07/29 05:21:19;;;;;;;15.00;4.10;;;;;;;22.53;83.13;99624.06;6245093;28;20076;-74
2021/07/29 05:24:20;;;;;;;14.77;3.90;;;;;;;22.64;82.83;99630.75;6234486;28;20165;-75
2021/07/29 05:27:20;;;;;;;13.80;3.83;;;;;;;22.63;83.10;99630.94;6224482;28;20532;-75
2021/07/29 05:30:21;;;;;;;12.70;4.03;;;;;;;22.49;83.83;99632.59;6222185;28;20128;-74
2021/07/29 05:33:22;;;;;;;15.90;4.10;;;;;;;22.39;84.92;99632.03;6220664;28;20070;-74
2021/07/29 05:36:22;;;;;;;13.07;4.33;;;;;;;22.38;85.22;99633.81;6221898;28;20042;-75
2021/07/29 05:39:23;;;;;;;16.03;4.10;;;;;;;22.40;85.82;99636.31;6241951;28;20495;-75
2021/07/29 05:42:24;;;;;;;15.60;4.07;;;;;;;22.34;86.92;99627.22;6244870;28;20057;-74
2021/07/29 05:45:25;;;;;;;11.90;4.53;;;;;;;22.35;87.02;99641.34;6246225;28;20041;-74
2021/07/29 05:48:26;;;;;;;11.00;4.00;;;;;;;22.39;87.27;99640.00;6245010;28;20088;-74
2021/07/29 05:51:26;;;;;;;17.50;4.23;;;;;;;22.38;87.87;99646.28;6244656;28;20096;-74
2021/07/29 05:54:27;;;;;;;12.17;3.63;;;;;;;22.50;87.67;99651.00;6244519;28;20049;-71
2021/07/29 05:57:28;;;;;;;13.60;4.17;;;;;;;22.55;87.11;99658.44;6245311;28;20068;-71
2021/07/29 06:00:28;;;;;;;9.20;4.40;;;;;;;22.65;87.56;99652.84;6246619;28;20081;-71
2021/07/29 06:03:29;;;;;;;20.00;4.20;;;;;;;22.78;87.21;99665.53;6244458;28;20045;-90
2021/07/29 06:06:30;;;;;;;10.13;4.10;;;;;;;22.92;85.03;99676.19;6245871;28;20492;-79
2021/07/29 06:09:30;;;;;;;10.17;4.33;;;;;;;23.11;84.85;99676.66;6243973;28;20048;-82
2021/07/29 06:12:31;;;;;;;11.00;3.80;;;;;;;23.19;84.50;99665.13;6228625;28;20099;-83
2021/07/29 06:15:32;;;;;;;11.10;4.23;;;;;;;23.29;83.03;99666.47;6245472;28;20128;-81
2021/07/29 06:18:35;;;;;;;10.85;4.47;;;;;;;23.44;83.27;99674.44;6248939;28;20090;-81
2021/07/29 06:21:37;;;;;;;7.95;3.92;;;;;;;23.60;81.79;99677.91;6245048;28;20103;-81
2021/07/29 06:24:37;;;;;;;13.57;4.03;;;;;;;23.66;82.86;99685.97;6246114;28;20053;-80
2021/07/29 06:27:38;;;;;;;7.20;4.00;;;;;;;23.61;81.70;99683.00;6212653;28;20045;-79
2021/07/29 06:30:42;;;;;;;14.43;5.20;;;;;;;23.67;82.28;99687.59;6229155;28;20045;-82
2021/07/29 06:33:42;;;;;;;13.32;3.78;;;;;;;23.65;82.47;99675.50;6228466;28;20045;-84
2021/07/29 06:36:43;;;;;;;7.93;4.00;;;;;;;23.78;80.75;99680.97;6228615;28;20554;-84
2021/07/29 06:39:44;;;;;;;14.77;4.37;;;;;;;23.86;80.86;99691.50;6228011;28;20065;-85
2021/07/29 06:42:44;;;;;;;8.60;3.90;;;;;;;23.94;82.22;99691.41;6220799;28;20057;-83
2021/07/29 06:45:45;;;;;;;9.90;4.60;;;;;;;24.01;78.77;99696.81;6248871;28;20046;-85
2021/07/29 06:48:48;;;;;;;20.10;4.90;;;;;;;24.04;78.76;99701.75;6247708;28;20034;-84
2021/07/29 06:51:49;;;;;;;13.02;4.68;;;;;;;24.05;78.72;99699.91;6245240;28;20450;-82
2021/07/29 06:54:49;;;;;;;9.47;3.87;;;;;;;24.10;78.25;99702.84;6213939;28;20041;-83
2021/07/29 06:57:50;;;;;;;9.60;4.00;;;;;;;24.09;78.25;99691.34;6250624;28;20112;-81
2021/07/29 07:00:51;;;;;;;12.33;4.30;;;;;;;24.19;77.56;99691.03;6233626;28;20058;-83
2021/07/29 07:03:52;;;;;;;7.50;4.10;;;;;;;24.25;79.41;99686.78;6242390;28;20290;-83
2021/07/29 07:06:53;;;;;;;17.08;4.70;;;;;;;24.31;78.46;99691.34;6250207;28;20073;-83
2021/07/29 07:09:54;;;;;;;9.83;4.47;;;;;;;24.40;77.42;99689.34;6247360;28;20500;-84
2021/07/29 07:12:54;;;;;;;7.97;4.20;;;;;;;24.53;76.87;99692.19;6231848;28;20496;-86
2021/07/29 07:15:55;;;;;;;8.70;4.10;;;;;;;24.59;76.13;99695.91;6232341;28;20451;-87
2021/07/29 07:18:57;;;;;;;12.70;4.15;;;;;;;24.68;78.08;99708.06;6232597;28;20045;-86
2021/07/29 07:21:58;;;;;;;8.93;3.90;;;;;;;24.70;75.32;99703.38;6233399;28;20485;-88
2021/07/29 07:25:00;;;;;;;9.52;4.10;;;;;;;24.73;76.03;99705.66;6234378;28;20076;-86
2021/07/29 07:28:01;;;;;;;6.50;4.28;;;;;;;24.82;76.69;99711.69;6249608;28;20399;-86
2021/07/29 07:31:02;;;;;;;10.40;4.40;;;;;;;24.88;74.74;99716.22;6217193;28;20103;-86
2021/07/29 07:34:03;;;;;;;11.77;4.17;;;;;;;24.94;75.77;99710.94;6233665;28;20076;-86
2021/07/29 07:37:04;;;;;;;8.73;4.10;;;;;;;25.02;74.43;99715.31;6222172;28;20042;-87
2021/07/29 07:40:07;;;;;;;11.93;4.47;;;;;;;25.14;75.31;99718.22;6225413;28;20046;-86
2021/07/29 07:43:09;;;;;;;13.93;3.90;;;;;;;25.26;73.15;99711.34;6225217;28;20050;-85
2021/07/29 07:46:09;;;;;;;;;;;;;;;25.26;73.12;99708.66;6225557;28;20505;-86
2021/07/29 07:49:12;;;;;;;9.63;4.73;;;;;;;25.32;74.12;99707.88;6230643;28;19920;-86
2021/07/29 07:52:13;;;;;;;14.05;5.00;;;;;;;25.40;74.04;99714.91;6248526;28;20041;-85
2021/07/29 07:55:13;;;;;;;16.20;4.72;;;;;;;25.48;72.51;99724.59;6215771;28;20052;-86
2021/07/29 07:58:14;;;;;;;10.73;4.57;;;;;;;25.44;72.66;99726.84;6249052;28;20050;-86
2021/07/29 08:01:15;;;;;;;12.95;5.15;;;;;;;25.51;71.42;99725.03;6215032;28;20057;-80
2021/07/29 08:04:16;;;;;;;20.35;5.70;;;;;;;25.49;69.89;99723.56;6230472;28;20396;-80
2021/07/29 08:07:17;;;;;;;13.70;5.60;;;;;;;25.55;70.55;99722.78;6229285;28;20041;-80
2021/07/29 08:10:18;;;;;;;15.23;5.67;;;;;;;25.59;70.06;99716.00;6230104;28;20045;-80
2021/07/29 08:13:19;;;;;;;13.55;5.22;;;;;;;25.66;70.33;99726.75;6230393;28;20336;-78
2021/07/29 08:16:20;;;;;;;14.85;5.50;;;;;;;25.71;69.38;99725.09;6230357;28;20480;-80
2021/07/29 08:19:20;;;;;;;16.13;5.82;;;;;;;25.73;70.02;99728.38;6230529;28;20053;-81
2021/07/29 08:22:21;;;;;;;17.10;5.83;;;;;;;25.74;71.16;99724.72;6221254;28;20056;-80
2021/07/29 08:25:23;;;;;;;14.23;6.13;;;;;;;25.81;69.22;99726.56;6207707;28;20279;-79
2021/07/29 08:28:24;;;;;;;15.32;5.15;;;;;;;25.80;68.14;99728.44;6223109;28;20042;-79
2021/07/29 08:31:24;;;;;;;11.70;5.00;;;;;;;25.85;68.50;99719.81;6221991;28;20045;-79
2021/07/29 08:34:26;;;;;;;10.87;5.40;;;;;;;25.89;67.77;99729.06;6221343;28;20488;-78
2021/07/29 08:37:27;;;;;;;;;;;;;;;25.95;68.28;99730.97;6222433;28;20634;-78
2021/07/29 08:40:27;;;;;;;16.53;5.40;;;;;;;25.99;66.73;99732.22;6221649;28;20012;-79
2021/07/29 08:43:30;;;;;;;11.70;5.50;;;;;;;26.06;69.32;99738.38;6205183;28;20049;-78
2021/07/29 08:46:34;;;;;;;20.90;5.80;;;;;;;26.18;66.84;99738.63;6219114;28;20057;-78
2021/07/29 08:49:42;;;;;;;16.70;5.65;;;;;;;26.21;67.08;99743.59;6246855;28;20092;-79
2021/07/29 08:52:43;;;;;;;16.45;5.95;;;;;;;26.20;66.14;99739.25;6244448;28;20114;-78
2021/07/29 08:55:54;;;;;;;19.00;6.57;;;;;;;26.25;65.68;99744.81;6229038;28;20042;-79
2021/07/29 08:58:54;;;;;;;13.05;6.07;;;;;;;26.28;62.40;99741.72;6246703;28;20289;-79
2021/07/29 09:01:56;;;;;;;16.10;5.67;;;;;;;26.38;61.48;99740.47;6246506;28;20136;-79
2021/07/29 09:05:17;;;;;;;11.35;5.47;;;;;;;26.41;62.90;99742.75;6253515;28;20119;-79
2021/07/29 09:08:17;;;;;;;14.60;5.43;;;;;;;26.48;63.18;99746.25;6270499;28;20187;-81
2021/07/29 09:11:38;;;;;;;19.98;5.28;;;;;;;26.49;61.89;99750.59;6237602;28;20510;-83
2021/07/29 09:14:40;;;;;;;13.48;5.30;;;;;;;26.56;60.03;99742.56;6247811;28;20045;-83
2021/07/29 09:17:46;;;;;;;13.13;5.82;;;;;;;26.61;60.75;99737.47;6245230;28;20044;-81
2021/07/29 09:20:47;;;;;;;15.00;5.05;;;;;;;26.59;60.27;99740.34;6246862;28;20400;-83
2021/07/29 09:24:11;;;;;;;15.73;4.75;;;;;;;26.69;59.56;99747.97;6212722;28;20064;-85
2021/07/29 09:27:12;;;;;;;11.77;5.40;;;;;;;26.70;60.23;99745.06;6221040;28;20085;-84
2021/07/29 09:30:23;;;;;;;14.55;4.53;;;;;;;26.70;62.13;99746.91;6228879;28;20045;-84
2021/07/29 09:33:24;;;;;;;14.73;5.05;;;;;;;26.78;58.66;99746.69;6228854;28;20103;-83
2021/07/29 09:36:28;;;;;;;10.40;4.60;;;;;;;26.87;60.56;99753.50;6212415;28;20458;-81
2021/07/29 09:39:29;;;;;;;14.18;4.72;;;;;;;26.98;60.45;99751.22;6239036;28;20045;-87
2021/07/29 09:42:30;;;;;;;15.93;5.15;;;;;;;27.01;58.33;99761.50;6188796;28;20065;-87
2021/07/29 09:45:31;;;;;;;12.30;4.68;;;;;;;26.85;57.71;99749.38;6188330;28;20469;-82
2021/07/29 09:48:32;;;;;;;19.58;5.28;;;;;;;26.97;60.06;99758.41;6188330;28;20095;-86
2021/07/29 09:51:35;;;;;;;22.17;5.15;;;;;;;27.04;59.60;99751.22;6204509;28;20045;-86
2021/07/29 09:54:38;;;;;;;20.77;5.70;;;;;;;27.09;56.87;99762.09;6220353;28;20065;-86
2021/07/29 09:57:38;;;;;;;11.43;4.65;;;;;;;27.15;57.15;99752.44;6204725;28;20061;-86
2021/07/29 10:00:39;;;;;;;16.38;5.30;;;;;;;27.18;57.61;99752.03;6240487;28;20052;-89
2021/07/29 10:03:43;;;;;;;13.77;5.03;;;;;;;27.20;58.20;99752.63;6195986;28;20045;-87
2021/07/29 10:06:47;;;;;;;13.60;4.97;;;;;;;27.27;59.14;99748.09;6244273;28;20060;-86
2021/07/29 10:09:49;;;;;;;17.95;5.45;;;;;;;27.30;58.17;99757.56;6244627;28;20042;-83
2021/07/29 10:12:50;;;;;;;24.33;5.30;;;;;;;27.30;56.46;99749.53;6228513;28;20128;-84
2021/07/29 10:15:51;;;;;;;14.45;4.47;;;;;;;27.40;58.54;99747.22;6244581;28;20484;-82
2021/07/29 10:18:52;;;;;;;17.60;5.03;;;;;;;27.41;57.13;99756.94;6245279;28;20052;-87
2021/07/29 10:21:52;;;;;;;13.05;4.95;;;;;;;27.57;58.62;99758.28;6245785;28;20049;-87
2021/07/29 10:24:53;;;;;;;11.13;5.05;;;;;;;27.64;58.78;99761.78;6212667;28;20124;-88
2021/07/29 10:28:23;;;;;;;15.63;4.78;;;;;;;27.62;58.79;99760.38;6228615;28;20046;-87
2021/07/29 10:31:44;;;;;;;10.77;5.22;;;;;;;27.67;58.55;99760.53;6247946;28;20103;-88
2021/07/29 10:34:47;;;;;;;17.40;5.67;;;;;;;27.76;58.09;99763.78;6251075;28;20052;-80
2021/07/29 10:37:50;;;;;;;28.10;5.32;;;;;;;27.82;58.07;99762.94;6249408;28;20392;-80
2021/07/29 10:40:51;;;;;;;14.20;5.07;;;;;;;27.90;56.68;99765.41;6233357;28;20041;-87
2021/07/29 10:43:52;;;;;;;8.88;4.43;;;;;;;27.87;57.07;99765.84;6249451;28;20103;-86
2021/07/29 10:46:55;;;;;;;13.50;4.95;;;;;;;28.00;57.51;99762.25;6232603;28;20396;-85
2021/07/29 10:50:02;;;;;;;15.13;4.53;;;;;;;28.11;57.20;99769.66;6249053;28;20053;-85
2021/07/29 10:53:03;;;;;;;14.63;4.80;;;;;;;27.95;58.06;99767.47;6248831;28;20280;-85
2021/07/29 10:56:04;;;;;;;9.68;5.38;;;;;;;27.78;58.36;99775.13;6248668;28;20045;-83
2021/07/29 10:59:04;;;;;;;9.38;5.10;;;;;;;27.60;58.80;99771.28;6232494;28;20044;-81
2021/07/29 11:02:10;;;;;;;15.32;4.97;;;;;;;27.86;57.63;99777.56;6232050;28;20132;-81
2021/07/29 11:05:15;;;;;;;13.52;4.82;;;;;;;28.15;57.66;99773.53;6248711;28;20042;-80
2021/07/29 11:08:26;;;;;;;15.18;4.68;;;;;;;28.34;54.99;99764.53;6233026;28;20119;-84
2021/07/29 11:11:27;;;;;;;15.97;4.30;;;;;;;28.50;53.41;99768.59;6248502;28;20496;-81
2021/07/29 11:14:33;;;;;;;17.05;4.88;;;;;;;28.67;55.65;99770.72;6248383;28;20065;-85
2021/07/29 11:17:34;;;;;;;15.25;4.60;;;;;;;28.80;54.73;99767.09;6248284;28;20045;-87
2021/07/29 11:20:35;;;;;;;14.32;4.40;;;;;;;28.91;52.83;99766.38;6248160;28;20042;-82
2021/07/29 11:23:37;;;;;;;14.45;4.43;;;;;;;28.98;52.50;99760.97;6231851;28;20045;-82
2021/07/29 11:26:42;;;;;;;14.48;4.53;;;;;;;28.89;51.51;99760.41;6246869;28;20041;-84
2021/07/29 11:29:56;;;;;;;13.43;4.60;;;;;;;28.76;53.05;99761.34;6247820;28;20033;-79
2021/07/29 11:32:57;;;;;;;17.67;4.53;;;;;;;28.95;54.41;99762.19;6247555;28;20041;-81
2021/07/29 11:36:09;;;;;;;11.40;4.10;;;;;;;28.79;55.55;99752.06;6215180;28;20408;-85
2021/07/29 11:39:10;;;;;;;9.93;4.57;;;;;;;29.13;52.42;99764.94;6251181;28;20464;-85
2021/07/29 11:42:11;;;;;;;12.23;4.78;;;;;;;29.27;52.97;99757.56;6216155;28;20400;-86
2021/07/29 11:45:29;;;;;;;8.02;3.97;;;;;;;29.51;48.96;99750.50;6215280;28;20044;-86
2021/07/29 11:48:30;;;;;;;15.18;4.38;;;;;;;29.92;48.77;99761.59;6247914;28;20451;-79
2021/07/29 11:51:31;;;;;;;8.90;4.47;;;;;;;30.73;47.05;99757.47;6231286;28;20550;-84
2021/07/29 11:54:32;;;;;;;17.05;4.93;;;;;;;32.38;42.39;99756.28;6231278;28;20041;-83
2021/07/29 11:57:33;;;;;;;12.65;4.45;;;;;;;34.70;39.33;99753.50;6247315;28;20076;-82
2021/07/29 12:00:34;;;;;;;;;;;;;;;33.58;39.91;99752.34;6231642;28;20064;-85
2021/07/29 12:03:39;;;;;;;13.55;4.55;;;;;;;34.91;39.96;99750.91;6247929;28;20024;-84
2021/07/29 12:06:39;;;;;;;11.57;4.00;;;;;;;36.65;34.28;99754.19;6247321;28;20053;-84
2021/07/29 12:09:43;;;;;;;14.18;4.18;;;;;;;38.35;30.64;99759.69;6215370;28;20061;-84
2021/07/29 12:12:45;;;;;;;11.07;4.28;;;;;;;39.38;26.97;99764.13;6247556;28;20060;-80
2021/07/29 12:15:57;;;;;;;9.63;4.38;;;;;;;39.78;26.17;99745.59;6245726;28;20072;-86
2021/07/29 12:19:27;;;;;;;15.45;4.20;;;;;;;40.20;25.22;99743.91;6225815;28;20459;-89
2021/07/29 12:22:29;;;;;;;14.30;4.00;;;;;;;40.73;26.07;99746.28;6204348;28;20053;-84
2021/07/29 12:25:31;;;;;;;13.48;3.97;;;;;;;40.13;27.27;99740.72;6217312;28;20477;-86
2021/07/29 12:28:45;;;;;;;10.75;3.90;;;;;;;39.57;28.43;99742.34;6235281;28;20481;-86
2021/07/29 12:31:46;;;;;;;10.65;3.67;;;;;;;38.84;28.54;99730.66;6247088;28;20048;-85
2021/07/29 12:34:48;;;;;;;10.55;3.70;;;;;;;37.01;32.36;99735.06;6215137;28;20037;-85
2021/07/29 12:37:57;;;;;;;9.27;3.60;;;;;;;35.70;34.06;99728.25;6218729;28;20045;-85
2021/07/29 12:40:59;;;;;;;7.93;3.60;;;;;;;34.90;37.77;99730.31;6237874;28;20038;-85
2021/07/29 12:44:09;;;;;;;14.82;3.97;;;;;;;34.26;37.45;99723.06;6214981;28;20041;-86
2021/07/29 12:47:11;;;;;;;8.00;3.33;;;;;;;33.55;37.63;99717.72;6246617;28;20041;-88
2021/07/29 12:50:12;;;;;;;9.73;3.53;;;;;;;33.26;37.99;99717.91;6214105;28;20046;-84
2021/07/29 12:53:14;;;;;;;8.70;3.60;;;;;;;32.87;39.41;99721.41;6203336;28;20041;-83
2021/07/29 12:56:15;;;;;;;8.38;3.30;;;;;;;32.71;39.79;99717.66;6244753;28;20077;-87
2021/07/29 12:59:15;;;;;;;10.05;3.70;;;;;;;32.40;40.24;99723.66;6213513;28;20124;-86
2021/07/29 13:02:16;;;;;;;8.13;3.72;;;;;;;32.25;44.27;99714.25;6230254;28;20104;-83
2021/07/29 13:05:17;;;;;;;8.45;3.70;;;;;;;32.39;40.72;99722.00;6246524;28;20076;-89
2021/07/29 13:08:18;;;;;;;13.23;3.60;;;;;;;32.24;40.80;99719.88;6246577;28;20104;-86
2021/07/29 13:11:21;;;;;;;13.27;3.65;;;;;;;32.00;40.47;99714.63;6245830;28;20389;-84
2021/07/29 13:14:21;;;;;;;6.97;3.60;;;;;;;31.93;40.76;99711.22;6245701;28;20042;-81
2021/07/29 13:17:22;;;;;;;9.35;3.70;;;;;;;31.92;42.54;99707.72;6228932;28;20429;-83
2021/07/29 13:20:23;;;;;;;;;;;;;;;31.94;44.41;99707.47;6213508;28;20049;-88
2021/07/29 13:23:26;;;;;;;8.43;3.43;;;;;;;31.90;41.68;99709.81;6229077;28;20011;-84
2021/07/29 13:26:27;;;;;;;9.15;3.97;;;;;;;31.83;42.22;99700.25;6229254;28;20061;-84
2021/07/29 13:29:28;;;;;;;7.63;3.13;;;;;;;31.75;42.16;99704.13;6229094;28;20510;-84
2021/07/29 13:32:29;;;;;;;;;;;;;;;31.79;42.15;99708.00;6246163;28;20034;-87
2021/07/29 13:35:30;;;;;;;10.30;3.40;;;;;;;31.72;41.10;99701.94;6217998;28;19921;-83
2021/07/29 13:38:30;;;;;;;;;;;;;;;31.82;44.88;99698.63;6200369;28;20474;-89
2021/07/29 13:41:31;;;;;;;8.98;3.38;;;;;;;31.79;42.92;99694.50;6230631;28;19928;-89
2021/07/29 13:44:34;;;;;;;;;;;;;;;31.87;42.46;99694.13;6231011;28;20045;-88
2021/07/29 13:47:34;;;;;;;9.20;3.33;;;;;;;31.89;43.39;99688.47;6211499;28;19921;-90
2021/07/29 13:50:35;;;;;;;;;;;;;;;31.73;40.69;99690.06;6210633;28;20037;-84
2021/07/29 13:53:36;;;;;;;8.07;3.50;;;;;;;31.58;42.51;99687.09;6230850;28;19925;-85
2021/07/29 13:56:36;;;;;;;;;;;;;;;31.59;42.20;99688.72;6234445;28;20448;-85
2021/07/29 13:59:37;;;;;;;10.30;3.50;;;;;;;31.65;41.92;99680.53;6239617;28;20276;-88
2021/07/29 14:02:38;;;;;;;;;;;;;;;31.51;43.33;99682.69;6218014;28;20115;-90
2021/07/29 14:05:42;;;;;;;14.70;3.20;;;;;;;31.59;40.40;99676.09;6210904;28;20388;-85
2021/07/29 14:08:45;;;;;;;13.63;3.50;;;;;;;31.28;42.40;99674.66;6249668;28;20116;-85
2021/07/29 14:11:46;;;;;;;6.82;3.00;;;;;;;31.35;42.35;99678.00;6238169;28;20046;-85